Time;durP1;ratioP1;P1;durP2;ratioP2;P2;SDS_P1;SDS_P2;PMS_P1;PMS_P2;Temp;Humidity;BMP_temperature;BMP_pressure;BME280_temperature;BME280_humidity;BME280_pressure;Samples;Min_cycle;Max_cycle;Signal;HPM_P1;HPM_P2
2023/07/17 00:02:15;;;;;;;9.15;2.92;;;17.80;99.90;;;;;;5081314;28;20048;-55
2023/07/17 00:04:41;;;;;;;7.00;2.67;;;17.80;99.90;;;;;;5079125;28;20044;-55
2023/07/17 00:07:07;;;;;;;10.55;3.25;;;17.80;99.90;;;;;;5081443;28;20037;-55
2023/07/17 00:09:32;;;;;;;8.73;2.80;;;17.80;99.90;;;;;;5079328;28;20037;-55
2023/07/17 00:11:58;;;;;;;10.68;3.53;;;17.70;99.90;;;;;;5080351;28;20040;-56
2023/07/17 00:14:24;;;;;;;10.52;3.20;;;17.70;99.90;;;;;;5080315;28;20104;-55
2023/07/17 00:16:49;;;;;;;7.45;3.00;;;17.70;99.90;;;;;;5079797;28;20465;-55
2023/07/17 00:19:15;;;;;;;7.88;2.78;;;17.60;99.90;;;;;;5080658;28;20048;-55
2023/07/17 00:21:41;;;;;;;13.27;2.75;;;17.60;99.90;;;;;;5079063;28;20098;-55
2023/07/17 00:24:06;;;;;;;6.45;2.45;;;17.50;99.90;;;;;;5062952;28;20129;-55
2023/07/17 00:26:32;;;;;;;10.98;2.95;;;17.40;99.90;;;;;;5078707;28;20044;-54
2023/07/17 00:29:21;;;;;;;12.23;2.95;;;17.30;99.90;;;;;;5081111;28;20105;-56
2023/07/17 00:31:47;;;;;;;7.75;2.38;;;17.20;99.90;;;;;;5080365;28;20093;-55
2023/07/17 00:34:12;;;;;;;10.05;2.83;;;17.10;99.90;;;;;;5077406;28;20040;-56
2023/07/17 00:36:38;;;;;;;9.20;2.60;;;16.90;99.90;;;;;;5080797;28;20083;-56
2023/07/17 00:39:04;;;;;;;10.23;2.67;;;16.90;99.90;;;;;;5060703;28;20036;-56
2023/07/17 00:41:29;;;;;;;6.78;2.40;;;16.90;99.90;;;;;;5080541;28;20341;-55
2023/07/17 00:43:55;;;;;;;7.65;2.60;;;16.80;99.90;;;;;;5078741;28;20404;-55
2023/07/17 00:46:21;;;;;;;7.00;2.22;;;16.80;99.90;;;;;;5078794;28;20047;-55
2023/07/17 00:48:47;;;;;;;7.68;2.53;;;16.80;99.90;;;;;;5078717;28;20119;-55
2023/07/17 00:51:13;;;;;;;9.35;2.45;;;16.80;99.90;;;;;;5078846;28;20087;-55
2023/07/17 00:53:39;;;;;;;9.00;2.42;;;16.80;99.90;;;;;;5080237;28;20063;-56
2023/07/17 00:56:05;;;;;;;6.22;2.55;;;16.70;99.90;;;;;;5078382;28;20044;-56
2023/07/17 00:58:31;;;;;;;12.57;2.85;;;16.70;99.90;;;;;;5078937;28;20048;-55
2023/07/17 01:00:56;;;;;;;8.73;2.35;;;16.70;99.90;;;;;;5078046;28;20076;-55
2023/07/17 01:03:22;;;;;;;6.72;2.45;;;16.70;99.90;;;;;;5080173;28;20040;-55
2023/07/17 01:05:48;;;;;;;6.68;2.28;;;16.70;99.90;;;;;;5079395;28;20799;-55
2023/07/17 01:08:15;;;;;;;6.93;2.50;;;16.60;99.90;;;;;;5078828;28;20041;-55
2023/07/17 01:10:42;;;;;;;8.32;2.60;;;16.60;99.90;;;;;;5079835;28;20040;-56
2023/07/17 01:13:11;;;;;;;9.05;2.50;;;16.60;99.90;;;;;;5078130;28;20037;-56
2023/07/17 01:15:36;;;;;;;8.98;2.10;;;16.60;99.90;;;;;;5080275;28;20040;-55
2023/07/17 01:18:02;;;;;;;6.97;2.15;;;16.60;99.90;;;;;;5078055;28;20096;-55
2023/07/17 01:20:28;;;;;;;7.13;2.30;;;16.50;99.90;;;;;;5078641;28;20060;-55
2023/07/17 01:22:59;;;;;;;4.65;2.30;;;16.50;99.90;;;;;;5078102;28;20055;-54
2023/07/17 01:25:25;;;;;;;4.63;2.35;;;16.50;99.90;;;;;;5078534;28;20047;-56
2023/07/17 01:27:51;;;;;;;6.97;2.65;;;16.50;99.90;;;;;;5079495;28;20041;-55
2023/07/17 01:30:17;;;;;;;7.97;2.72;;;16.40;99.90;;;;;;5077980;28;20072;-55
2023/07/17 01:32:43;;;;;;;7.30;2.33;;;16.40;99.90;;;;;;5079933;28;20047;-55
2023/07/17 01:35:09;;;;;;;7.80;2.40;;;16.40;99.90;;;;;;5077630;28;20095;-56
2023/07/17 01:37:34;;;;;;;7.25;2.67;;;16.40;99.90;;;;;;5079990;28;20048;-56
2023/07/17 01:40:00;;;;;;;6.70;2.40;;;16.30;99.90;;;;;;5077622;28;20101;-55
2023/07/17 01:42:26;;;;;;;7.07;2.40;;;16.30;99.90;;;;;;5078319;28;20043;-55
2023/07/17 01:44:52;;;;;;;5.47;2.38;;;16.30;99.90;;;;;;5079839;28;20067;-55
2023/07/17 01:47:18;;;;;;;9.32;2.40;;;16.30;99.90;;;;;;5077764;28;20146;-56
2023/07/17 01:49:43;;;;;;;7.55;2.33;;;16.30;99.90;;;;;;5079878;28;20170;-55
2023/07/17 01:52:10;;;;;;;8.60;2.17;;;16.30;99.90;;;;;;5076175;28;20047;-55
2023/07/17 01:54:36;;;;;;;5.88;2.35;;;16.30;99.90;;;;;;5080130;28;20040;-55
2023/07/17 01:57:01;;;;;;;8.13;2.70;;;16.30;99.90;;;;;;5078200;28;20564;-55
2023/07/17 01:59:27;;;;;;;6.20;2.30;;;16.30;99.90;;;;;;5078741;28;20040;-55
2023/07/17 02:01:53;;;;;;;5.90;2.13;;;16.30;99.90;;;;;;5077976;28;20542;-54
2023/07/17 02:04:18;;;;;;;7.60;2.40;;;16.30;99.90;;;;;;5077689;28;20124;-55
2023/07/17 02:06:44;;;;;;;12.48;2.72;;;16.20;99.90;;;;;;5079869;28;20052;-56
2023/07/17 02:09:10;;;;;;;9.65;2.80;;;16.20;99.90;;;;;;5077631;28;20098;-56
2023/07/17 02:11:35;;;;;;;10.20;2.58;;;16.20;99.90;;;;;;5079383;28;20108;-56
2023/07/17 02:14:02;;;;;;;9.05;2.92;;;16.20;99.90;;;;;;5059962;28;20041;-55
2023/07/17 02:16:28;;;;;;;12.15;2.70;;;16.20;99.90;;;;;;5078826;28;20049;-55
2023/07/17 02:18:53;;;;;;;6.30;2.65;;;16.10;99.90;;;;;;5077871;28;20069;-55
2023/07/17 02:21:19;;;;;;;10.48;3.10;;;16.10;99.90;;;;;;5059401;28;20094;-55
2023/07/17 02:23:45;;;;;;;12.93;3.08;;;16.10;99.90;;;;;;5079439;28;20045;-55
2023/07/17 02:26:11;;;;;;;11.93;3.13;;;16.10;99.90;;;;;;5077213;28;20044;-55
2023/07/17 02:28:37;;;;;;;8.15;2.78;;;16.10;99.90;;;;;;5079878;28;20100;-56
2023/07/17 02:31:03;;;;;;;10.48;3.20;;;16.10;99.90;;;;;;5077752;28;20028;-56
2023/07/17 02:33:28;;;;;;;9.30;3.22;;;16.10;99.90;;;;;;5078841;28;20083;-56
2023/07/17 02:35:54;;;;;;;9.52;3.05;;;16.10;99.90;;;;;;5080527;28;20402;-55
2023/07/17 02:38:20;;;;;;;12.45;3.40;;;16.10;99.90;;;;;;5080055;28;20119;-55
2023/07/17 02:40:46;;;;;;;12.15;3.05;;;16.10;99.90;;;;;;5064813;28;20040;-56
2023/07/17 02:43:12;;;;;;;12.30;3.55;;;16.00;99.90;;;;;;5079640;28;20082;-56
2023/07/17 02:45:38;;;;;;;14.38;3.33;;;16.10;99.90;;;;;;5083108;28;20036;-55
2023/07/17 02:48:04;;;;;;;10.30;3.03;;;16.00;99.90;;;;;;5080754;28;20049;-55
2023/07/17 02:50:30;;;;;;;11.60;3.53;;;16.00;99.90;;;;;;5081424;28;20179;-56
2023/07/17 02:52:56;;;;;;;13.50;3.67;;;16.00;99.90;;;;;;5080818;28;20048;-55
2023/07/17 02:55:22;;;;;;;8.45;3.33;;;16.00;99.90;;;;;;5062840;28;20041;-55
2023/07/17 02:57:48;;;;;;;8.68;3.20;;;16.00;99.90;;;;;;5081234;28;20413;-55
2023/07/17 03:00:14;;;;;;;10.25;3.03;;;16.00;99.90;;;;;;5080593;28;20052;-55
2023/07/17 03:02:42;;;;;;;11.20;2.92;;;16.00;99.90;;;;;;5082556;28;20235;-56
2023/07/17 03:05:09;;;;;;;8.38;2.97;;;15.90;99.90;;;;;;5080405;28;20046;-55
2023/07/17 03:07:43;;;;;;;11.63;2.75;;;16.00;99.90;;;;;;5082573;28;20182;-55
2023/07/17 03:10:09;;;;;;;12.10;3.33;;;15.90;99.90;;;;;;5081704;28;20064;-55
2023/07/17 03:12:36;;;;;;;11.77;3.08;;;15.90;99.90;;;;;;5079432;28;20040;-56
2023/07/17 03:15:04;;;;;;;9.88;3.58;;;15.90;99.90;;;;;;5082049;28;20095;-55
2023/07/17 03:17:30;;;;;;;10.80;3.50;;;15.90;99.90;;;;;;5078807;28;20059;-56
2023/07/17 03:19:55;;;;;;;10.63;3.40;;;15.80;99.90;;;;;;5080982;28;20080;-57
2023/07/17 03:22:21;;;;;;;10.30;3.50;;;15.80;99.90;;;;;;5078927;28;20065;-55
2023/07/17 03:24:47;;;;;;;11.20;3.40;;;15.80;99.90;;;;;;5082013;28;20055;-55
2023/07/17 03:27:12;;;;;;;13.35;3.45;;;15.80;99.90;;;;;;5080106;28;20041;-56
2023/07/17 03:29:38;;;;;;;9.77;3.17;;;15.80;99.90;;;;;;5079166;28;20108;-55
2023/07/17 03:32:04;;;;;;;10.60;2.95;;;15.80;99.90;;;;;;5081837;28;20040;-55
2023/07/17 03:34:30;;;;;;;12.57;3.50;;;15.80;99.90;;;;;;5080011;28;20082;-56
2023/07/17 03:36:55;;;;;;;9.45;3.10;;;15.70;99.90;;;;;;5081941;28;20040;-55
2023/07/17 03:39:21;;;;;;;12.98;3.47;;;15.80;99.90;;;;;;5078474;28;20036;-56
2023/07/17 03:41:47;;;;;;;8.63;3.47;;;15.80;99.90;;;;;;5081760;28;20052;-55
2023/07/17 03:44:12;;;;;;;13.73;3.60;;;15.70;99.90;;;;;;5079454;28;20068;-55
2023/07/17 03:46:38;;;;;;;15.10;3.25;;;15.70;99.90;;;;;;5079667;28;20044;-55
2023/07/17 03:49:04;;;;;;;11.52;3.38;;;15.70;99.90;;;;;;5081557;28;20075;-55
2023/07/17 03:51:30;;;;;;;12.02;3.25;;;15.60;99.90;;;;;;5078296;28;20041;-55
2023/07/17 03:53:55;;;;;;;9.30;3.00;;;15.60;99.90;;;;;;5081510;28;20036;-54
2023/07/17 03:56:21;;;;;;;12.02;3.40;;;15.60;99.90;;;;;;5079322;28;20127;-55
2023/07/17 03:58:47;;;;;;;14.27;3.10;;;15.60;99.90;;;;;;5080655;28;20051;-55
2023/07/17 04:01:13;;;;;;;12.30;3.28;;;15.60;99.90;;;;;;5080165;28;20591;-55
2023/07/17 04:03:39;;;;;;;10.00;3.22;;;15.60;99.90;;;;;;5079186;28;20076;-56
2023/07/17 04:06:05;;;;;;;9.85;3.38;;;15.60;99.90;;;;;;5080991;28;20100;-56
2023/07/17 04:08:31;;;;;;;11.90;2.92;;;15.60;99.90;;;;;;5078134;28;20551;-56
2023/07/17 04:10:57;;;;;;;7.75;2.92;;;15.60;99.90;;;;;;5081041;28;20040;-55
2023/07/17 04:13:22;;;;;;;8.90;3.20;;;15.60;99.90;;;;;;5077775;28;20079;-55
2023/07/17 04:15:48;;;;;;;12.05;3.05;;;15.70;99.90;;;;;;5080189;28;20090;-55
2023/07/17 04:18:14;;;;;;;12.63;3.30;;;15.70;99.90;;;;;;5079686;28;20064;-55
2023/07/17 04:20:41;;;;;;;9.68;2.45;;;15.70;99.90;;;;;;5080225;28;20063;-55
2023/07/17 04:23:07;;;;;;;11.13;3.30;;;15.70;99.90;;;;;;5079410;28;20479;-55
2023/07/17 04:25:32;;;;;;;14.02;3.60;;;15.60;99.90;;;;;;5079026;28;20082;-55
2023/07/17 04:27:58;;;;;;;7.35;3.28;;;15.70;99.90;;;;;;5080954;28;20048;-55
2023/07/17 04:30:23;;;;;;;11.05;3.15;;;15.70;99.90;;;;;;5077253;28;20045;-55
2023/07/17 04:32:54;;;;;;;8.30;3.20;;;15.70;99.90;;;;;;5080920;28;20040;-55
2023/07/17 04:35:19;;;;;;;16.17;3.90;;;15.70;99.90;;;;;;5111454;28;20044;-55
2023/07/17 04:37:45;;;;;;;9.50;3.33;;;15.60;99.90;;;;;;5078720;28;20511;-55
2023/07/17 04:40:11;;;;;;;13.80;3.25;;;15.70;99.90;;;;;;5078688;28;20041;-55
2023/07/17 04:42:38;;;;;;;11.32;3.30;;;15.70;99.90;;;;;;5078657;28;20464;-57
2023/07/17 04:45:05;;;;;;;11.57;3.10;;;15.70;99.90;;;;;;5080495;28;20115;-55
2023/07/17 04:47:31;;;;;;;11.70;3.50;;;15.70;99.90;;;;;;5078489;28;20096;-55
2023/07/17 04:49:58;;;;;;;9.48;3.13;;;15.70;99.90;;;;;;5113115;28;20044;-55
2023/07/17 04:52:23;;;;;;;11.98;3.67;;;15.70;99.90;;;;;;5078758;28;20071;-55
2023/07/17 04:54:49;;;;;;;8.63;2.88;;;15.70;99.90;;;;;;5080060;28;20051;-55
2023/07/17 04:57:15;;;;;;;8.93;3.20;;;15.70;99.90;;;;;;5079551;28;20040;-55
2023/07/17 04:59:40;;;;;;;15.48;3.50;;;15.80;99.90;;;;;;5078542;28;20041;-55
2023/07/17 05:02:06;;;;;;;8.93;2.85;;;15.80;99.90;;;;;;5080064;28;20040;-55
2023/07/17 05:04:32;;;;;;;11.77;3.53;;;15.80;99.90;;;;;;5076831;28;20102;-56
2023/07/17 05:06:58;;;;;;;8.57;3.13;;;15.80;99.90;;;;;;5080423;28;20142;-55
2023/07/17 05:09:23;;;;;;;9.90;3.47;;;15.80;99.90;;;;;;5076754;28;20064;-56
2023/07/17 05:11:50;;;;;;;8.57;3.35;;;15.90;99.90;;;;;;5079846;28;20045;-55
2023/07/17 05:14:16;;;;;;;11.95;3.75;;;15.90;99.90;;;;;;5079253;28;20098;-55
2023/07/17 05:16:42;;;;;;;10.00;3.80;;;15.90;99.90;;;;;;5078841;28;20045;-55
2023/07/17 05:19:07;;;;;;;12.90;3.28;;;15.90;99.90;;;;;;5079643;28;20036;-55
2023/07/17 05:21:33;;;;;;;13.50;3.60;;;15.90;99.90;;;;;;5076774;28;20051;-56
2023/07/17 05:23:59;;;;;;;16.38;4.25;;;16.00;99.90;;;;;;5078673;28;20044;-55
2023/07/17 05:26:25;;;;;;;12.02;4.10;;;16.00;99.90;;;;;;5077822;28;20056;-55
2023/07/17 05:28:51;;;;;;;7.90;4.05;;;16.00;99.90;;;;;;5080171;28;20033;-56
2023/07/17 05:31:17;;;;;;;14.52;4.10;;;16.00;99.90;;;;;;5078828;28;20075;-55
2023/07/17 05:33:43;;;;;;;10.85;4.60;;;16.10;99.90;;;;;;5077259;28;20056;-55
2023/07/17 05:36:08;;;;;;;12.02;4.10;;;16.10;99.90;;;;;;5079758;28;20083;-55
2023/07/17 05:38:34;;;;;;;12.70;4.10;;;16.10;99.90;;;;;;5077878;28;20041;-56
2023/07/17 05:41:02;;;;;;;10.00;4.10;;;16.20;99.90;;;;;;5079574;28;20048;-55
2023/07/17 05:43:35;;;;;;;15.60;4.63;;;16.20;99.90;;;;;;5059687;28;20428;-56
2023/07/17 05:46:02;;;;;;;15.15;4.28;;;16.30;99.90;;;;;;5080085;28;20055;-56
2023/07/17 05:48:28;;;;;;;16.63;4.72;;;16.30;99.90;;;;;;5079023;28;20048;-55
2023/07/17 05:50:53;;;;;;;12.80;4.30;;;16.30;99.90;;;;;;5060533;28;20037;-56
2023/07/17 05:53:19;;;;;;;8.25;4.10;;;16.40;99.90;;;;;;5079658;28;20115;-56
2023/07/17 05:55:45;;;;;;;13.70;4.60;;;16.40;99.90;;;;;;5077689;28;20036;-54
2023/07/17 05:58:10;;;;;;;17.38;4.55;;;16.40;99.90;;;;;;5079557;28;20049;-55
2023/07/17 06:00:36;;;;;;;11.63;4.55;;;16.50;99.90;;;;;;5043044;28;20117;-55
2023/07/17 06:03:02;;;;;;;13.60;5.13;;;16.60;99.90;;;;;;5078602;28;20037;-55
2023/07/17 06:05:28;;;;;;;15.07;4.72;;;16.60;99.90;;;;;;5093826;28;20507;-55
2023/07/17 06:07:53;;;;;;;13.23;5.18;;;16.70;99.90;;;;;;5077357;28;20045;-55
2023/07/17 06:10:19;;;;;;;15.35;5.18;;;16.70;99.90;;;;;;5079981;28;20485;-55
2023/07/17 06:12:45;;;;;;;14.27;5.00;;;16.80;99.90;;;;;;5081613;28;20734;-55
2023/07/17 06:15:13;;;;;;;20.23;5.57;;;16.80;99.90;;;;;;5083242;28;20044;-55
2023/07/17 06:17:39;;;;;;;17.35;5.28;;;16.80;99.90;;;;;;5081407;28;20048;-56
2023/07/17 06:20:07;;;;;;;9.77;4.75;;;16.80;99.90;;;;;;5083481;28;20040;-55
2023/07/17 06:22:33;;;;;;;13.38;4.45;;;16.90;99.90;;;;;;5064106;28;20048;-55
2023/07/17 06:24:59;;;;;;;14.88;5.90;;;17.00;99.90;;;;;;5080873;28;20108;-55
2023/07/17 06:27:24;;;;;;;18.40;6.05;;;17.00;99.90;;;;;;5082928;28;20059;-55
2023/07/17 06:29:50;;;;;;;17.25;5.80;;;17.00;99.90;;;;;;5081066;28;20102;-55
2023/07/17 06:32:16;;;;;;;13.18;5.88;;;17.00;99.90;;;;;;5082916;28;20100;-55
2023/07/17 06:34:41;;;;;;;16.80;5.65;;;17.10;99.90;;;;;;5062940;28;20060;-55
2023/07/17 06:37:07;;;;;;;17.20;5.57;;;17.20;99.90;;;;;;5083208;28;20067;-56
2023/07/17 06:39:33;;;;;;;15.98;5.55;;;17.30;99.90;;;;;;5080214;28;20124;-55
2023/07/17 06:41:59;;;;;;;15.50;5.50;;;17.30;99.90;;;;;;5080910;28;20427;-56
2023/07/17 06:44:25;;;;;;;14.38;5.68;;;17.30;99.90;;;;;;5081443;28;20093;-55
2023/07/17 06:46:51;;;;;;;14.90;5.93;;;17.40;99.90;;;;;;5080962;28;20037;-56
2023/07/17 06:49:16;;;;;;;23.40;6.70;;;17.50;99.90;;;;;;5082704;28;20048;-54
2023/07/17 06:51:42;;;;;;;17.85;6.55;;;17.50;99.90;;;;;;5080571;28;20060;-55
2023/07/17 06:54:08;;;;;;;12.60;5.65;;;17.70;99.90;;;;;;5082868;28;20048;-55
2023/07/17 06:56:33;;;;;;;14.43;5.72;;;17.80;99.90;;;;;;5080541;28;20049;-55
2023/07/17 06:59:00;;;;;;;16.58;5.65;;;17.80;99.90;;;;;;5080887;28;20068;-56
2023/07/17 07:01:26;;;;;;;16.20;6.50;;;17.90;99.90;;;;;;5097379;28;20037;-56
2023/07/17 07:03:51;;;;;;;15.23;5.97;;;18.00;99.90;;;;;;5079544;28;20048;-55
2023/07/17 07:06:17;;;;;;;12.77;5.75;;;18.10;99.90;;;;;;5080961;28;20075;-55
2023/07/17 07:08:43;;;;;;;14.40;5.53;;;18.20;99.90;;;;;;5080406;28;20036;-55
2023/07/17 07:11:10;;;;;;;17.05;6.07;;;18.20;99.90;;;;;;5082316;28;20037;-56
2023/07/17 07:13:36;;;;;;;17.60;5.97;;;18.30;99.90;;;;;;5080482;28;20040;-55
2023/07/17 07:16:02;;;;;;;13.73;5.88;;;18.40;99.90;;;;;;5064334;28;20048;-55
2023/07/17 07:18:28;;;;;;;14.95;5.95;;;18.50;99.90;;;;;;5081131;28;20066;-55
2023/07/17 07:20:54;;;;;;;16.35;5.68;;;18.50;99.90;;;;;;5079502;28;20076;-56
2023/07/17 07:23:20;;;;;;;16.77;6.47;;;18.60;99.90;;;;;;5082082;28;20052;-56
2023/07/17 07:25:47;;;;;;;17.52;6.72;;;18.60;99.90;;;;;;5078801;28;20093;-56
2023/07/17 07:28:13;;;;;;;16.05;5.88;;;18.70;99.90;;;;;;5082126;28;20047;-56
2023/07/17 07:30:39;;;;;;;19.45;5.95;;;18.80;99.90;;;;;;5079645;28;20044;-55
2023/07/17 07:33:05;;;;;;;14.18;6.38;;;19.00;99.90;;;;;;5082174;28;20051;-55
2023/07/17 07:35:30;;;;;;;17.40;4.97;;;19.30;99.90;;;;;;5062496;28;20042;-56
2023/07/17 07:37:56;;;;;;;12.50;5.28;;;19.50;99.90;;;;;;5079410;28;20048;-56
2023/07/17 07:40:22;;;;;;;15.18;5.90;;;19.70;99.90;;;;;;5079951;28;20051;-55
2023/07/17 07:42:48;;;;;;;15.93;6.53;;;19.90;99.90;;;;;;5079814;28;20041;-56
2023/07/17 07:45:14;;;;;;;14.68;5.72;;;20.00;99.90;;;;;;5080524;28;20044;-55
2023/07/17 07:47:40;;;;;;;19.67;5.50;;;20.30;99.90;;;;;;5079561;28;20217;-56
2023/07/17 07:50:07;;;;;;;12.27;4.78;;;20.40;99.90;;;;;;5082146;28;20093;-56
2023/07/17 07:52:33;;;;;;;13.82;5.80;;;20.40;99.90;;;;;;5080281;28;20040;-55
2023/07/17 07:54:59;;;;;;;14.45;5.43;;;20.40;99.90;;;;;;5080909;28;20053;-57
2023/07/17 07:57:25;;;;;;;13.73;5.07;;;20.10;99.90;;;;;;5081181;28;20059;-55
2023/07/17 07:59:51;;;;;;;14.15;5.53;;;20.00;99.90;;;;;;5078266;28;20047;-56
2023/07/17 08:02:17;;;;;;;14.85;6.47;;;19.90;99.90;;;;;;5080351;28;20040;-55
2023/07/17 08:04:43;;;;;;;12.70;6.00;;;19.80;99.90;;;;;;5078020;28;20500;-56
2023/07/17 08:07:09;;;;;;;13.40;5.50;;;19.70;99.90;;;;;;5081609;28;20072;-56
2023/07/17 08:09:35;;;;;;;13.85;5.43;;;19.60;99.90;;;;;;5079728;28;20041;-55
2023/07/17 08:12:00;;;;;;;10.55;5.35;;;19.50;99.90;;;;;;5080536;28;20059;-56
2023/07/17 08:14:26;;;;;;;10.77;4.97;;;19.40;99.90;;;;;;5080946;28;20047;-55
2023/07/17 08:16:52;;;;;;;11.95;5.22;;;19.40;99.90;;;;;;5077767;28;20051;-56
2023/07/17 08:19:19;;;;;;;16.30;5.63;;;19.50;99.90;;;;;;5080798;28;20269;-56
2023/07/17 08:21:45;;;;;;;12.88;5.65;;;19.70;99.90;;;;;;5078752;28;20059;-56
2023/07/17 08:24:10;;;;;;;12.80;5.90;;;19.80;99.90;;;;;;5081198;28;20040;-56
2023/07/17 08:26:38;;;;;;;12.38;5.35;;;19.80;99.90;;;;;;5079311;28;20055;-56
2023/07/17 08:29:07;;;;;;;17.05;5.60;;;19.90;99.90;;;;;;5080556;28;20044;-56
2023/07/17 08:31:34;;;;;;;12.60;4.75;;;20.00;99.90;;;;;;5113151;28;20120;-55
2023/07/17 08:34:06;;;;;;;13.73;4.97;;;20.00;99.90;;;;;;5078482;28;20094;-56
2023/07/17 08:36:32;;;;;;;18.67;4.78;;;20.00;99.90;;;;;;5080742;28;20051;-56
2023/07/17 08:38:58;;;;;;;12.30;4.70;;;20.10;99.90;;;;;;5077241;28;20512;-56
2023/07/17 08:41:24;;;;;;;13.70;4.97;;;20.20;99.90;;;;;;5079382;28;20044;-55
2023/07/17 08:43:51;;;;;;;14.88;5.28;;;20.20;99.90;;;;;;5079020;28;20571;-55
2023/07/17 08:46:17;;;;;;;11.07;4.43;;;20.20;99.90;;;;;;5078698;28;20055;-56
2023/07/17 08:48:44;;;;;;;10.52;4.22;;;20.00;99.90;;;;;;5080453;28;20141;-55
2023/07/17 08:51:14;;;;;;;13.73;4.50;;;19.90;99.90;;;;;;5077342;28;20040;-56
2023/07/17 08:53:41;;;;;;;15.93;4.50;;;19.80;99.90;;;;;;5080243;28;20037;-55
2023/07/17 08:56:08;;;;;;;12.80;4.88;;;19.70;99.90;;;;;;5078313;28;20044;-56
2023/07/17 08:58:35;;;;;;;12.30;4.57;;;19.90;99.90;;;;;;5080562;28;20100;-55
2023/07/17 09:01:01;;;;;;;13.95;5.00;;;20.20;99.90;;;;;;5077453;28;20108;-56
2023/07/17 09:03:28;;;;;;;11.85;4.50;;;20.40;99.90;;;;;;5079472;28;20044;-55
2023/07/17 09:05:53;;;;;;;13.13;4.68;;;20.50;99.90;;;;;;5078819;28;20037;-56
2023/07/17 09:08:19;;;;;;;8.68;4.32;;;20.50;99.90;;;;;;5110777;28;20599;-56
2023/07/17 09:10:45;;;;;;;13.60;3.83;;;20.40;99.90;;;;;;5079850;28;20082;-56
2023/07/17 09:13:11;;;;;;;14.25;4.20;;;20.50;99.90;;;;;;5076831;28;20037;-56
2023/07/17 09:15:38;;;;;;;10.77;3.90;;;20.50;99.90;;;;;;5080429;28;20772;-55
2023/07/17 09:18:04;;;;;;;11.10;3.80;;;20.60;99.90;;;;;;5077160;28;20083;-55
2023/07/17 09:20:30;;;;;;;7.13;3.10;;;20.60;99.90;;;;;;5079468;28;20058;-55
2023/07/17 09:23:00;;;;;;;8.63;3.60;;;20.50;99.90;;;;;;5079394;28;20056;-55
2023/07/17 09:25:27;;;;;;;8.02;3.60;;;20.60;99.90;;;;;;5078047;28;20048;-56
2023/07/17 09:27:54;;;;;;;10.82;3.67;;;20.70;99.90;;;;;;5080149;28;20041;-56
2023/07/17 09:30:22;;;;;;;9.63;3.40;;;20.90;99.90;;;;;;5076748;28;20040;-56
2023/07/17 09:32:49;;;;;;;9.38;3.22;;;21.10;99.90;;;;;;5080116;28;20539;-56
2023/07/17 09:35:19;;;;;;;10.20;3.38;;;21.20;99.90;;;;;;5078242;28;20407;-56
2023/07/17 09:37:45;;;;;;;5.55;2.97;;;21.40;99.90;;;;;;5079190;28;20056;-55
2023/07/17 09:40:13;;;;;;;7.88;3.60;;;21.60;99.80;;;;;;5061177;28;20132;-56
2023/07/17 09:42:51;;;;;;;7.90;3.35;;;21.60;98.90;;;;;;5077990;28;20497;-56
2023/07/17 09:45:19;;;;;;;10.48;3.88;;;21.60;98.10;;;;;;5077915;28;20051;-56
2023/07/17 09:47:52;;;;;;;8.65;3.70;;;21.30;98.10;;;;;;5077859;28;20040;-56
2023/07/17 09:50:23;;;;;;;8.02;3.45;;;21.20;98.30;;;;;;5078280;28;20048;-56
2023/07/17 09:52:50;;;;;;;8.88;3.70;;;21.00;98.70;;;;;;5078996;28;20059;-55
2023/07/17 09:55:16;;;;;;;7.30;3.67;;;20.80;98.80;;;;;;5078065;28;20508;-56
2023/07/17 09:57:44;;;;;;;9.15;3.63;;;20.70;99.20;;;;;;5079548;28;20037;-55
2023/07/17 10:00:14;;;;;;;10.13;3.90;;;20.60;99.50;;;;;;5076156;28;20048;-56
2023/07/17 10:03:00;;;;;;;8.15;3.70;;;20.60;99.90;;;;;;5112115;28;20056;-55
2023/07/17 10:05:27;;;;;;;9.68;3.03;;;20.70;99.90;;;;;;5076691;28;20421;-55
2023/07/17 10:07:54;;;;;;;8.20;3.17;;;20.80;99.90;;;;;;5078523;28;20075;-56
2023/07/17 10:10:20;;;;;;;6.90;3.25;;;21.00;99.40;;;;;;5079037;28;20040;-56
2023/07/17 10:12:47;;;;;;;9.93;3.20;;;21.10;99.20;;;;;;5076040;28;20412;-56
2023/07/17 10:15:14;;;;;;;6.78;3.30;;;21.20;99.30;;;;;;5079474;28;20055;-56
2023/07/17 10:17:40;;;;;;;6.97;3.40;;;21.30;99.10;;;;;;5077086;28;20548;-56
2023/07/17 10:20:08;;;;;;;10.20;3.25;;;21.20;98.60;;;;;;5079486;28;20056;-56
2023/07/17 10:22:38;;;;;;;7.95;3.38;;;21.20;98.60;;;;;;5076823;28;20120;-55
2023/07/17 10:25:19;;;;;;;8.45;3.10;;;21.10;98.20;;;;;;5078096;28;20064;-56
2023/07/17 10:28:03;;;;;;;7.72;3.03;;;21.00;98.00;;;;;;5079104;28;20109;-55
2023/07/17 10:30:29;;;;;;;7.22;3.05;;;21.10;98.70;;;;;;5076981;28;20050;-56
2023/07/17 10:33:07;;;;;;;10.07;3.10;;;21.10;98.30;;;;;;5078173;28;20828;-56
2023/07/17 10:35:53;;;;;;;12.20;3.00;;;21.10;97.70;;;;;;5078320;28;20392;-54
2023/07/17 10:38:30;;;;;;;10.75;2.97;;;21.10;97.00;;;;;;5077422;28;20044;-55
2023/07/17 10:41:06;;;;;;;7.85;3.00;;;20.90;97.20;;;;;;5078860;28;20066;-56
2023/07/17 10:43:34;;;;;;;8.88;3.17;;;20.90;97.30;;;;;;5077181;28;20040;-55
2023/07/17 10:46:06;;;;;;;13.30;3.80;;;20.90;97.60;;;;;;5077480;28;20033;-55
2023/07/17 10:48:34;;;;;;;7.07;2.85;;;21.00;97.50;;;;;;5078616;28;20053;-55
2023/07/17 10:51:00;;;;;;;10.32;3.20;;;21.00;97.70;;;;;;5109553;28;20079;-55
2023/07/17 10:53:26;;;;;;;6.28;2.83;;;21.00;97.80;;;;;;5077622;28;20064;-56
2023/07/17 10:55:52;;;;;;;10.90;3.10;;;21.10;97.90;;;;;;5076993;28;20115;-55
2023/07/17 10:58:19;;;;;;;7.45;3.00;;;21.10;97.40;;;;;;5082914;28;20067;-55
2023/07/17 11:00:45;;;;;;;8.45;2.70;;;21.10;97.40;;;;;;5113131;28;20078;-55
2023/07/17 11:03:14;;;;;;;9.73;2.80;;;21.30;97.30;;;;;;5082175;28;20048;-55
2023/07/17 11:05:41;;;;;;;5.60;2.95;;;21.30;97.40;;;;;;5081920;28;20044;-55
2023/07/17 11:08:14;;;;;;;9.93;2.60;;;21.30;97.00;;;;;;5079604;28;20056;-57
2023/07/17 11:10:42;;;;;;;14.00;2.70;;;21.30;97.40;;;;;;5081880;28;20619;-56
2023/07/17 11:13:08;;;;;;;6.95;2.30;;;21.40;96.60;;;;;;5078752;28;20032;-55
2023/07/17 11:15:35;;;;;;;7.75;2.33;;;21.40;96.60;;;;;;5080998;28;20087;-56
2023/07/17 11:18:03;;;;;;;7.47;2.60;;;21.40;96.20;;;;;;5080857;28;20062;-55
2023/07/17 11:20:31;;;;;;;6.53;2.63;;;21.40;96.10;;;;;;5081607;28;20136;-56
2023/07/17 11:22:57;;;;;;;5.55;2.50;;;21.50;96.00;;;;;;5081849;28;20090;-55
2023/07/17 11:25:27;;;;;;;5.32;2.20;;;21.40;95.80;;;;;;5080406;28;20049;-55
2023/07/17 11:27:54;;;;;;;5.43;2.05;;;21.40;95.90;;;;;;5081784;28;20499;-56
2023/07/17 11:30:26;;;;;;;6.70;2.47;;;21.40;95.80;;;;;;5080040;28;20049;-56
2023/07/17 11:32:57;;;;;;;8.15;2.42;;;21.60;96.10;;;;;;5081023;28;20049;-55
2023/07/17 11:35:35;;;;;;;10.65;2.67;;;21.60;95.80;;;;;;5080844;28;20044;-55
2023/07/17 11:38:05;;;;;;;17.13;2.85;;;21.80;96.30;;;;;;5078966;28;20041;-55
2023/07/17 11:40:30;;;;;;;7.15;2.58;;;21.90;96.40;;;;;;5081396;28;20048;-56
2023/07/17 11:43:02;;;;;;;8.57;2.30;;;21.90;96.10;;;;;;5078535;28;20139;-56
2023/07/17 11:45:28;;;;;;;9.93;2.10;;;21.90;95.40;;;;;;5082178;28;20051;-55
2023/07/17 11:47:56;;;;;;;11.43;2.47;;;21.90;94.70;;;;;;5079888;28;20044;-56
2023/07/17 11:50:24;;;;;;;4.00;2.13;;;21.80;94.90;;;;;;5081490;28;20075;-56
2023/07/17 11:53:06;;;;;;;9.70;2.30;;;21.70;95.00;;;;;;5081056;28;20042;-55
2023/07/17 11:55:39;;;;;;;9.07;2.45;;;21.60;94.80;;;;;;5079751;28;20524;-56
2023/07/17 11:58:14;;;;;;;4.40;2.03;;;21.50;94.50;;;;;;5081626;28;20533;-55
2023/07/17 12:00:42;;;;;;;6.53;2.25;;;21.30;95.00;;;;;;5079654;28;20036;-55
2023/07/17 12:03:07;;;;;;;9.50;2.35;;;21.10;95.20;;;;;;5113979;28;20098;-56
2023/07/17 12:05:35;;;;;;;6.15;2.05;;;21.00;95.30;;;;;;5080799;28;20040;-56
2023/07/17 12:08:00;;;;;;;8.68;2.80;;;20.90;96.60;;;;;;5079014;28;20512;-56
2023/07/17 12:10:26;;;;;;;8.38;2.75;;;20.60;97.50;;;;;;5079572;28;20041;-56
2023/07/17 12:12:52;;;;;;;6.93;2.97;;;20.40;98.50;;;;;;5079418;28;20062;-56
2023/07/17 12:15:18;;;;;;;8.65;2.40;;;20.30;99.50;;;;;;5079993;28;20064;-56
2023/07/17 12:17:44;;;;;;;5.93;2.40;;;20.10;99.90;;;;;;5079138;28;20047;-56
2023/07/17 12:20:10;;;;;;;6.78;2.50;;;20.00;99.90;;;;;;5079673;28;20060;-55
2023/07/17 12:22:36;;;;;;;4.97;2.38;;;19.90;99.90;;;;;;5080098;28;20071;-55
2023/07/17 12:25:02;;;;;;;6.80;2.30;;;19.80;99.90;;;;;;5078448;28;20040;-56
2023/07/17 12:27:28;;;;;;;5.10;2.00;;;19.70;99.90;;;;;;5080698;28;20044;-55
2023/07/17 12:29:54;;;;;;;5.85;2.00;;;19.60;99.90;;;;;;5077480;28;20033;-55
2023/07/17 12:32:19;;;;;;;4.85;2.10;;;19.50;99.90;;;;;;5080882;28;20040;-55
2023/07/17 12:34:46;;;;;;;6.10;2.13;;;19.50;99.90;;;;;;5078516;28;20052;-55
2023/07/17 12:37:12;;;;;;;3.95;2.08;;;19.40;99.90;;;;;;5079619;28;20108;-56
2023/07/17 12:39:37;;;;;;;5.00;2.22;;;19.30;99.90;;;;;;5078207;28;20079;-55